Time;durP1;ratioP1;P1;durP2;ratioP2;P2;SDS_P1;SDS_P2;PMS_P1;PMS_P2;Temp;Humidity;BMP_temperature;BMP_pressure;BME280_temperature;BME280_humidity;BME280_pressure;Samples;Min_cycle;Max_cycle;Signal;HPM_P1;HPM_P2
2023/06/12 00:04:18;;;;;;;;;;;;;;;15.56;100.00;95505.66;10505510;28;2178;-72
2023/06/12 00:09:21;;;;;;;;;;;;;;;15.52;100.00;95502.78;10503030;28;1894;-72
2023/06/12 00:14:24;;;;;;;;;;;;;;;15.48;100.00;95506.44;10500898;28;2383;-72
2023/06/12 00:19:27;;;;;;;;;;;;;;;15.43;100.00;95498.44;10505768;28;1879;-72
2023/06/12 00:24:29;;;;;;;;;;;;;;;15.38;100.00;95499.34;10504862;28;1911;-72
2023/06/12 00:29:32;;;;;;;;;;;;;;;15.35;100.00;95491.88;10503868;28;1880;-72
2023/06/12 00:34:34;;;;;;;;;;;;;;;15.31;100.00;95501.72;10505858;28;1895;-72
2023/06/12 00:39:36;;;;;;;;;;;;;;;15.28;100.00;95496.94;10499611;28;1977;-72
2023/06/12 00:44:40;;;;;;;;;;;;;;;15.23;100.00;95488.94;10505213;28;5157;-71
2023/06/12 00:49:43;;;;;;;;;;;;;;;15.21;100.00;95483.03;10501976;28;1981;-70
2023/06/12 00:54:45;;;;;;;;;;;;;;;15.17;100.00;95495.59;10502055;28;2024;-71
2023/06/12 00:59:48;;;;;;;;;;;;;;;15.16;100.00;95494.00;10503952;28;2135;-71
2023/06/12 01:04:50;;;;;;;;;;;;;;;15.07;100.00;95492.00;10512612;28;1960;-70
2023/06/12 01:09:53;;;;;;;;;;;;;;;15.05;100.00;95490.72;10505098;28;2227;-71
2023/06/12 01:14:55;;;;;;;;;;;;;;;14.94;100.00;95495.56;10510951;28;2008;-71
2023/06/12 01:20:03;;;;;;;;;;;;;;;14.93;100.00;95491.28;10506077;28;2099;-71
2023/06/12 01:25:05;;;;;;;;;;;;;;;14.86;100.00;95491.72;10508731;28;1950;-71
2023/06/12 01:30:08;;;;;;;;;;;;;;;14.76;100.00;95496.56;10510048;28;2022;-71
2023/06/12 01:35:11;;;;;;;;;;;;;;;14.61;100.00;95495.00;10510403;28;2052;-72
2023/06/12 01:40:16;;;;;;;;;;;;;;;14.64;100.00;95505.25;10513342;28;4876;-71
2023/06/12 01:45:19;;;;;;;;;;;;;;;14.62;100.00;95495.81;10513194;28;2078;-71
2023/06/12 01:50:21;;;;;;;;;;;;;;;14.56;100.00;95482.41;10510161;28;2316;-70
2023/06/12 01:55:24;;;;;;;;;;;;;;;14.44;100.00;95486.72;10510058;28;1984;-70
2023/06/12 02:00:26;;;;;;;;;;;;;;;14.46;100.00;95479.94;10514453;28;2058;-72
2023/06/12 02:05:29;;;;;;;;;;;;;;;14.37;100.00;95483.63;10506461;28;2324;-71
2023/06/12 02:10:31;;;;;;;;;;;;;;;14.33;100.00;95486.94;10505717;28;2022;-71
2023/06/12 02:15:34;;;;;;;;;;;;;;;14.31;100.00;95483.75;10512054;28;1915;-71
2023/06/12 02:20:36;;;;;;;;;;;;;;;14.20;100.00;95489.69;10501160;28;1980;-72
2023/06/12 02:25:39;;;;;;;;;;;;;;;14.22;100.00;95484.78;10511856;28;2013;-71
2023/06/12 02:30:41;;;;;;;;;;;;;;;14.24;100.00;95494.16;10507847;28;1994;-71
2023/06/12 02:35:44;;;;;;;;;;;;;;;14.16;100.00;95492.19;10504582;28;2100;-70
2023/06/12 02:40:46;;;;;;;;;;;;;;;14.17;100.00;95482.97;10502216;28;4742;-71
2023/06/12 02:45:49;;;;;;;;;;;;;;;14.09;100.00;95478.28;10508242;28;1992;-71
2023/06/12 02:50:51;;;;;;;;;;;;;;;14.02;100.00;95481.41;10508865;28;2048;-71
2023/06/12 02:55:54;;;;;;;;;;;;;;;13.92;100.00;95489.69;10500256;28;2168;-71
2023/06/12 03:00:57;;;;;;;;;;;;;;;13.91;100.00;95485.41;10504846;28;2362;-71
2023/06/12 03:06:00;;;;;;;;;;;;;;;13.93;100.00;95488.63;10509763;28;2044;-71
2023/06/12 03:11:03;;;;;;;;;;;;;;;13.99;100.00;95495.50;10508465;28;2255;-70
2023/06/12 03:16:09;;;;;;;;;;;;;;;13.93;100.00;95491.31;10509978;28;2082;-70
2023/06/12 03:21:12;;;;;;;;;;;;;;;13.91;100.00;95498.91;10508338;28;2016;-69
2023/06/12 03:26:15;;;;;;;;;;;;;;;13.85;100.00;95505.50;10495310;28;2190;-71
2023/06/12 03:31:18;;;;;;;;;;;;;;;13.87;100.00;95502.50;10504461;28;2068;-71
2023/06/12 03:36:21;;;;;;;;;;;;;;;13.95;100.00;95493.72;10504302;28;1986;-69
2023/06/12 03:41:23;;;;;;;;;;;;;;;14.11;100.00;95505.00;10501406;28;4787;-71
2023/06/12 03:46:26;;;;;;;;;;;;;;;14.26;100.00;95513.59;10509486;28;2108;-69
2023/06/12 03:51:28;;;;;;;;;;;;;;;14.32;100.00;95517.81;10502447;28;1970;-70
2023/06/12 03:56:32;;;;;;;;;;;;;;;14.47;100.00;95522.09;10507331;28;1990;-70
2023/06/12 04:01:35;;;;;;;;;;;;;;;14.56;100.00;95514.84;10507139;28;2396;-70
2023/06/12 04:06:40;;;;;;;;;;;;;;;14.76;100.00;95513.63;10506682;28;2080;-71
2023/06/12 04:11:43;;;;;;;;;;;;;;;14.83;100.00;95524.00;10499642;28;1993;-71
2023/06/12 04:16:46;;;;;;;;;;;;;;;15.08;100.00;95520.69;10504275;28;2047;-72
2023/06/12 04:21:49;;;;;;;;;;;;;;;15.12;100.00;95515.44;10504162;28;2044;-71
2023/06/12 04:26:54;;;;;;;;;;;;;;;15.45;100.00;95517.88;10507019;28;2204;-71
2023/06/12 04:31:57;;;;;;;;;;;;;;;15.52;100.00;95513.59;10509146;28;2029;-71
2023/06/12 04:36:59;;;;;;;;;;;;;;;16.00;100.00;95517.53;10504118;28;2131;-71
2023/06/12 04:42:02;;;;;;;;;;;;;;;15.89;100.00;95508.88;10512636;28;4674;-71
2023/06/12 04:47:08;;;;;;;;;;;;;;;16.26;100.00;95509.47;10511764;28;2088;-71
2023/06/12 04:52:12;;;;;;;;;;;;;;;16.57;100.00;95509.34;10513639;28;1957;-71
2023/06/12 04:57:16;;;;;;;;;;;;;;;16.39;100.00;95508.53;10507397;28;2322;-71
2023/06/12 05:02:20;;;;;;;;;;;;;;;16.45;100.00;95501.84;10514232;28;2070;-71
2023/06/12 05:07:23;;;;;;;;;;;;;;;16.64;100.00;95515.91;10514646;28;2219;-71
2023/06/12 05:12:26;;;;;;;;;;;;;;;16.74;100.00;95512.91;10510982;28;2158;-71
2023/06/12 05:17:28;;;;;;;;;;;;;;;16.51;100.00;95514.13;10508488;28;1978;-71
2023/06/12 05:22:30;;;;;;;;;;;;;;;16.46;100.00;95515.06;10514591;28;1985;-71
2023/06/12 05:27:33;;;;;;;;;;;;;;;16.81;100.00;95522.50;10513513;28;1963;-71
2023/06/12 05:32:36;;;;;;;;;;;;;;;17.20;100.00;95516.88;10510504;28;1985;-71
2023/06/12 05:37:38;;;;;;;;;;;;;;;17.20;100.00;95533.19;10509137;28;2005;-71
2023/06/12 05:42:40;;;;;;;;;;;;;;;17.19;100.00;95515.28;10506435;28;1910;-71
2023/06/12 05:47:43;;;;;;;;;;;;;;;17.24;100.00;95506.16;10514753;28;2135;-71
2023/06/12 05:52:46;;;;;;;;;;;;;;;17.88;100.00;95516.22;10507204;28;1895;-70
2023/06/12 05:57:48;;;;;;;;;;;;;;;18.04;100.00;95523.53;10512141;28;1890;-71
2023/06/12 06:02:55;;;;;;;;;;;;;;;18.32;100.00;95528.50;10510946;28;1921;-71
2023/06/12 06:07:57;;;;;;;;;;;;;;;18.20;100.00;95518.34;10513584;28;1896;-71
2023/06/12 06:13:00;;;;;;;;;;;;;;;18.12;100.00;95530.06;10512495;28;1891;-73
2023/06/12 06:18:02;;;;;;;;;;;;;;;18.10;100.00;95535.81;10512602;28;1915;-70
2023/06/12 06:23:05;;;;;;;;;;;;;;;18.26;100.00;95530.66;10505343;28;1946;-71
2023/06/12 06:28:07;;;;;;;;;;;;;;;18.50;100.00;95537.38;10510615;28;1907;-69
2023/06/12 06:33:09;;;;;;;;;;;;;;;18.88;100.00;95531.84;10514897;28;1879;-72
2023/06/12 06:38:12;;;;;;;;;;;;;;;19.60;100.00;95538.00;10488166;28;1914;-71
2023/06/12 06:43:14;;;;;;;;;;;;;;;19.17;100.00;95548.13;10500655;28;4666;-69
2023/06/12 06:48:17;;;;;;;;;;;;;;;19.05;100.00;95550.00;10504739;28;2601;-69
2023/06/12 06:53:19;;;;;;;;;;;;;;;19.23;100.00;95553.38;10501747;28;1918;-72
2023/06/12 06:58:21;;;;;;;;;;;;;;;18.64;100.00;95541.47;10490363;28;1961;-72
2023/06/12 07:03:24;;;;;;;;;;;;;;;19.36;100.00;95547.66;10488513;28;1987;-70
2023/06/12 07:08:27;;;;;;;;;;;;;;;19.60;100.00;95540.72;10491263;28;1932;-69
2023/06/12 07:13:29;;;;;;;;;;;;;;;19.81;100.00;95538.72;10493605;28;1844;-69
2023/06/12 07:18:31;;;;;;;;;;;;;;;19.82;100.00;95539.50;10493574;28;1916;-70
2023/06/12 07:23:34;;;;;;;;;;;;;;;19.68;100.00;95540.63;10494494;28;2032;-71
2023/06/12 07:28:36;;;;;;;;;;;;;;;20.36;100.00;95539.31;10496378;28;1876;-72
2023/06/12 07:33:39;;;;;;;;;;;;;;;20.44;100.00;95536.50;10493199;28;1922;-70
2023/06/12 07:38:42;;;;;;;;;;;;;;;19.97;100.00;95539.63;10488736;28;1914;-71
2023/06/12 07:43:45;;;;;;;;;;;;;;;19.70;100.00;95545.72;10491235;28;4678;-71
2023/06/12 07:48:47;;;;;;;;;;;;;;;20.48;100.00;95528.44;10484067;28;1948;-71
2023/06/12 07:53:50;;;;;;;;;;;;;;;20.51;100.00;95533.22;10491127;28;1915;-71
2023/06/12 07:58:52;;;;;;;;;;;;;;;20.35;100.00;95538.53;10487671;28;1859;-71
2023/06/12 08:03:56;;;;;;;;;;;;;;;20.42;100.00;95529.75;10495836;28;1958;-70
2023/06/12 08:08:59;;;;;;;;;;;;;;;20.14;100.00;95535.91;10491589;28;1944;-70
2023/06/12 08:14:02;;;;;;;;;;;;;;;20.54;100.00;95529.00;10490058;28;1859;-69
2023/06/12 08:19:04;;;;;;;;;;;;;;;19.98;100.00;95532.28;10491665;28;1902;-70
2023/06/12 08:24:09;;;;;;;;;;;;;;;20.38;100.00;95524.22;10488947;28;1895;-72
2023/06/12 08:29:12;;;;;;;;;;;;;;;20.44;100.00;95531.03;10497844;28;2402;-70
2023/06/12 08:34:15;;;;;;;;;;;;;;;21.13;100.00;95537.41;10475211;28;1905;-71
2023/06/12 08:39:18;;;;;;;;;;;;;;;20.83;100.00;95533.41;10494166;28;2317;-70
2023/06/12 08:44:21;;;;;;;;;;;;;;;20.89;100.00;95548.41;10495690;28;4681;-72
2023/06/12 08:49:24;;;;;;;;;;;;;;;21.14;100.00;95538.22;10493531;28;1946;-70
2023/06/12 08:54:26;;;;;;;;;;;;;;;21.02;100.00;95531.63;10493139;28;1902;-70
2023/06/12 08:59:29;;;;;;;;;;;;;;;21.11;100.00;95527.97;10493772;28;1863;-71
2023/06/12 09:04:31;;;;;;;;;;;;;;;20.46;100.00;95542.44;10497461;28;2144;-70
2023/06/12 09:09:34;;;;;;;;;;;;;;;20.85;100.00;95528.38;10482932;28;1887;-70
2023/06/12 09:14:37;;;;;;;;;;;;;;;21.08;100.00;95534.94;10493372;28;1844;-71
2023/06/12 09:19:40;;;;;;;;;;;;;;;20.92;100.00;95529.38;10493276;28;1640;-71
2023/06/12 09:24:43;;;;;;;;;;;;;;;21.16;100.00;95530.44;10504707;28;1969;-70
2023/06/12 09:29:45;;;;;;;;;;;;;;;20.78;100.00;95510.63;10507465;28;1588;-71
2023/06/12 09:34:48;;;;;;;;;;;;;;;20.94;96.39;95531.78;10495442;28;2489;-70
2023/06/12 09:39:51;;;;;;;;;;;;;;;21.35;91.11;95527.09;10493879;28;1998;-72
2023/06/12 09:44:53;;;;;;;;;;;;;;;21.71;86.34;95526.13;10497664;28;1905;-71
2023/06/12 09:49:57;;;;;;;;;;;;;;;21.65;83.13;95508.41;10498332;28;1947;-70
2023/06/12 09:54:59;;;;;;;;;;;;;;;22.01;77.30;95505.44;10495029;28;1991;-71
2023/06/12 10:00:02;;;;;;;;;;;;;;;21.89;76.70;95519.19;10499141;28;1899;-70
2023/06/12 10:05:04;;;;;;;;;;;;;;;21.73;75.97;95515.63;10495275;28;1946;-72
2023/06/12 10:10:08;;;;;;;;;;;;;;;21.57;76.40;95499.22;10497417;28;1784;-72
2023/06/12 10:15:11;;;;;;;;;;;;;;;21.56;72.54;95505.81;10499710;28;1878;-71
2023/06/12 10:20:14;;;;;;;;;;;;;;;21.78;65.69;95502.50;10491354;28;1859;-71
2023/06/12 10:25:17;;;;;;;;;;;;;;;22.05;65.96;95484.41;10494933;28;1954;-71
2023/06/12 10:30:19;;;;;;;;;;;;;;;22.48;65.73;95495.59;10499476;28;1930;-72
2023/06/12 10:35:22;;;;;;;;;;;;;;;22.54;63.45;95489.50;10508247;28;2265;-72
2023/06/12 10:40:25;;;;;;;;;;;;;;;23.53;56.36;95484.50;10495694;28;4861;-73
2023/06/12 10:45:47;;;;;;;;;;;;;;;24.68;52.90;95478.97;10501152;28;1963;-72
2023/06/12 10:50:50;;;;;;;;;;;;;;;23.86;52.98;95480.44;10507996;28;1968;-72
2023/06/12 10:55:53;;;;;;;;;;;;;;;23.72;52.53;95486.44;10505746;28;1903;-72
2023/06/12 11:00:56;;;;;;;;;;;;;;;23.24;53.58;95476.88;10505180;28;1893;-71
2023/06/12 11:06:00;;;;;;;;;;;;;;;24.12;53.57;95464.00;10505454;28;1922;-73
2023/06/12 11:11:02;;;;;;;;;;;;;;;23.90;53.24;95476.56;10503710;28;1872;-71
2023/06/12 11:16:05;;;;;;;;;;;;;;;23.36;53.37;95457.53;10496203;28;1855;-72
2023/06/12 11:21:09;;;;;;;;;;;;;;;23.44;51.66;95459.25;10493357;28;1932;-71
2023/06/12 11:26:12;;;;;;;;;;;;;;;23.08;58.50;95464.03;10497917;28;2006;-70
2023/06/12 11:31:14;;;;;;;;;;;;;;;22.75;61.66;95450.00;10491053;28;2355;-72
2023/06/12 11:36:17;;;;;;;;;;;;;;;22.79;60.91;95431.72;10498113;28;1859;-72
2023/06/12 11:41:20;;;;;;;;;;;;;;;22.99;60.32;95444.28;10496966;28;5082;-72
2023/06/12 11:46:23;;;;;;;;;;;;;;;22.62;57.64;95447.41;10496972;28;1934;-72
2023/06/12 11:51:25;;;;;;;;;;;;;;;22.88;57.48;95446.00;10502776;28;1872;-72
2023/06/12 11:56:28;;;;;;;;;;;;;;;22.83;55.31;95446.25;10494425;28;1867;-73
2023/06/12 12:01:34;;;;;;;;;;;;;;;22.73;58.18;95446.84;10493490;28;1906;-72
2023/06/12 12:06:38;;;;;;;;;;;;;;;22.57;58.23;95444.94;10501104;28;2056;-72
2023/06/12 12:11:40;;;;;;;;;;;;;;;23.00;56.25;95437.66;10494960;28;1894;-71
2023/06/12 12:16:43;;;;;;;;;;;;;;;22.75;55.32;95439.06;10496885;28;1907;-72
2023/06/12 12:21:46;;;;;;;;;;;;;;;23.17;53.08;95444.66;10497178;28;1890;-72
2023/06/12 12:26:50;;;;;;;;;;;;;;;23.32;53.05;95441.00;10496264;28;2334;-73
2023/06/12 12:31:54;;;;;;;;;;;;;;;23.35;51.48;95434.00;10498089;28;1943;-72
2023/06/12 12:36:57;;;;;;;;;;;;;;;23.59;50.29;95430.13;10495017;28;1906;-72
2023/06/12 12:41:59;;;;;;;;;;;;;;;23.09;49.54;95427.25;10490138;28;4741;-72
2023/06/12 12:47:02;;;;;;;;;;;;;;;23.05;47.61;95429.13;10495960;28;1922;-72
2023/06/12 12:52:05;;;;;;;;;;;;;;;22.96;46.84;95423.06;10490095;28;1950;-73
2023/06/12 12:57:08;;;;;;;;;;;;;;;23.18;47.06;95441.53;10504920;28;1906;-73
2023/06/12 13:02:11;;;;;;;;;;;;;;;23.19;46.65;95437.63;10500271;28;1872;-72
2023/06/12 13:07:13;;;;;;;;;;;;;;;23.19;47.58;95426.66;10498579;28;2115;-72
2023/06/12 13:12:15;;;;;;;;;;;;;;;23.70;45.65;95422.91;10501319;28;1875;-71
2023/06/12 13:17:18;;;;;;;;;;;;;;;23.72;43.14;95415.88;10497548;28;2012;-73
2023/06/12 13:22:21;;;;;;;;;;;;;;;23.91;41.44;95411.47;10501933;28;2405;-74
2023/06/12 13:27:23;;;;;;;;;;;;;;;23.65;40.93;95415.75;10498148;28;1926;-74
2023/06/12 13:32:26;;;;;;;;;;;;;;;23.62;40.44;95412.97;10500255;28;2044;-74
2023/06/12 13:37:28;;;;;;;;;;;;;;;24.20;39.45;95424.50;10502668;28;1930;-74
2023/06/12 13:42:32;;;;;;;;;;;;;;;23.52;41.22;95408.06;10497515;28;4545;-72
2023/06/12 13:47:36;;;;;;;;;;;;;;;23.40;39.67;95414.50;10514229;28;1959;-73
2023/06/12 13:52:39;;;;;;;;;;;;;;;23.61;39.26;95408.63;10510148;28;1915;-73
2023/06/12 13:57:41;;;;;;;;;;;;;;;23.59;38.36;95408.97;10512483;28;1907;-74
2023/06/12 14:02:43;;;;;;;;;;;;;;;23.63;36.83;95404.38;10514831;28;1888;-73
2023/06/12 14:07:46;;;;;;;;;;;;;;;23.52;34.48;95410.78;10512551;28;2054;-73
2023/06/12 14:12:49;;;;;;;;;;;;;;;23.45;34.95;95395.00;10512720;28;2131;-73
2023/06/12 14:17:51;;;;;;;;;;;;;;;23.68;36.06;95401.31;10515326;28;2417;-72
2023/06/12 14:22:54;;;;;;;;;;;;;;;24.05;37.68;95389.75;10511574;28;1942;-73
2023/06/12 14:27:56;;;;;;;;;;;;;;;24.00;36.06;95379.88;10504094;28;1981;-73
2023/06/12 14:32:59;;;;;;;;;;;;;;;24.15;34.11;95386.34;10507382;28;1919;-73
2023/06/12 14:38:02;;;;;;;;;;;;;;;24.48;37.87;95371.13;10504247;28;1903;-73
2023/06/12 14:43:05;;;;;;;;;;;;;;;24.52;37.77;95363.75;10512883;28;2253;-73
2023/06/12 14:48:07;;;;;;;;;;;;;;;24.05;37.37;95377.94;10514427;28;2307;-73
2023/06/12 14:53:11;;;;;;;;;;;;;;;24.12;32.51;95359.66;10513680;28;2076;-74
2023/06/12 14:58:13;;;;;;;;;;;;;;;24.17;33.21;95364.81;10509559;28;1878;-73
2023/06/12 15:03:16;;;;;;;;;;;;;;;24.07;33.47;95359.19;10512817;28;1899;-73
2023/06/12 15:08:18;;;;;;;;;;;;;;;24.53;35.83;95359.84;10503678;28;1930;-73
2023/06/12 15:13:21;;;;;;;;;;;;;;;24.40;37.35;95350.25;10509578;28;2414;-72
2023/06/12 15:18:23;;;;;;;;;;;;;;;24.10;37.80;95364.69;10518203;28;1891;-72
2023/06/12 15:23:44;;;;;;;;;;;;;;;24.07;37.10;95367.41;10519397;28;1898;-73
2023/06/12 15:28:47;;;;;;;;;;;;;;;24.75;36.06;95349.91;10513114;28;1851;-73
2023/06/12 15:33:49;;;;;;;;;;;;;;;24.40;36.59;95344.75;10501672;28;1886;-73
2023/06/12 15:38:52;;;;;;;;;;;;;;;24.52;35.53;95333.53;10509522;28;2106;-72
2023/06/12 15:43:54;;;;;;;;;;;;;;;23.98;36.71;95351.19;10502004;28;4370;-72
2023/06/12 15:48:57;;;;;;;;;;;;;;;23.73;36.92;95356.31;10508842;28;2099;-72
2023/06/12 15:53:59;;;;;;;;;;;;;;;24.03;34.75;95350.88;10505367;28;1860;-72
2023/06/12 15:59:02;;;;;;;;;;;;;;;23.77;34.38;95337.16;10489976;28;2127;-72
2023/06/12 16:04:04;;;;;;;;;;;;;;;23.83;33.42;95343.91;10491564;28;1975;-72
2023/06/12 16:09:07;;;;;;;;;;;;;;;23.62;33.36;95345.16;10491237;28;2291;-73
2023/06/12 16:14:10;;;;;;;;;;;;;;;23.33;32.81;95352.09;10487946;28;2083;-72
2023/06/12 16:19:13;;;;;;;;;;;;;;;22.91;33.00;95350.19;10485767;28;1892;-72
2023/06/12 16:24:16;;;;;;;;;;;;;;;23.11;33.93;95350.94;10483032;28;1887;-72
2023/06/12 16:29:19;;;;;;;;;;;;;;;22.84;33.82;95349.19;10484974;28;1923;-73
2023/06/12 16:34:21;;;;;;;;;;;;;;;22.83;34.79;95350.34;10487119;28;2009;-74
2023/06/12 16:39:25;;;;;;;;;;;;;;;22.71;34.89;95351.28;10487034;28;1860;-71
2023/06/12 16:44:28;;;;;;;;;;;;;;;22.48;35.32;95353.97;10488552;28;4466;-71
2023/06/12 16:49:31;;;;;;;;;;;;;;;22.31;36.00;95349.72;10492786;28;2314;-74
2023/06/12 16:54:33;;;;;;;;;;;;;;;22.37;36.72;95342.78;10489768;28;1907;-72
2023/06/12 16:59:36;;;;;;;;;;;;;;;22.37;36.44;95352.97;10487620;28;2154;-73
2023/06/12 17:04:38;;;;;;;;;;;;;;;22.18;36.08;95353.72;10489500;28;1890;-72
2023/06/12 17:09:41;;;;;;;;;;;;;;;21.98;36.50;95347.41;10492973;28;1888;-72
2023/06/12 17:14:43;;;;;;;;;;;;;;;21.95;37.10;95348.13;10491398;28;2009;-72
2023/06/12 17:19:45;;;;;;;;;;;;;;;21.69;37.28;95345.16;10501041;28;1931;-73
2023/06/12 17:24:48;;;;;;;;;;;;;;;21.66;38.14;95341.19;10508925;28;1890;-73
2023/06/12 17:29:50;;;;;;;;;;;;;;;21.53;38.25;95343.22;10505310;28;2085;-72
2023/06/12 17:34:53;;;;;;;;;;;;;;;21.43;38.54;95349.22;10500917;28;1867;-72
2023/06/12 17:39:55;;;;;;;;;;;;;;;21.39;39.02;95351.09;10505866;28;4549;-71
2023/06/12 17:44:57;;;;;;;;;;;;;;;21.29;38.23;95346.94;10513260;28;1911;-73
2023/06/12 17:50:00;;;;;;;;;;;;;;;21.15;37.99;95354.75;10505971;28;2063;-74
2023/06/12 17:55:03;;;;;;;;;;;;;;;21.12;38.89;95347.25;10502686;28;2052;-73
2023/06/12 18:00:05;;;;;;;;;;;;;;;20.99;39.50;95346.53;10500713;28;1975;-72
2023/06/12 18:05:08;;;;;;;;;;;;;;;20.90;39.78;95351.34;10503987;28;2303;-73
2023/06/12 18:10:11;;;;;;;;;;;;;;;20.77;40.92;95360.75;10504865;28;1946;-74
2023/06/12 18:15:14;;;;;;;;;;;;;;;20.67;42.37;95362.03;10505875;28;1879;-72
2023/06/12 18:20:16;;;;;;;;;;;;;;;20.55;43.53;95358.56;10507679;28;1988;-73
2023/06/12 18:25:20;;;;;;;;;;;;;;;20.39;44.71;95362.00;10498023;28;1966;-72
2023/06/12 18:30:23;;;;;;;;;;;;;;;20.24;45.86;95360.00;10508716;28;1934;-73
2023/06/12 18:35:26;;;;;;;;;;;;;;;20.08;46.77;95354.47;10509707;28;1902;-72
2023/06/12 18:40:28;;;;;;;;;;;;;;;19.97;47.89;95362.31;10502342;28;4707;-72
2023/06/12 18:45:30;;;;;;;;;;;;;;;19.83;48.90;95364.63;10505522;28;1906;-73
2023/06/12 18:50:33;;;;;;;;;;;;;;;19.70;49.76;95372.00;10506039;28;1949;-74
2023/06/12 18:55:36;;;;;;;;;;;;;;;19.56;50.85;95370.72;10506291;28;2174;-73
2023/06/12 19:00:39;;;;;;;;;;;;;;;19.38;53.66;95379.13;10508705;28;2234;-72
2023/06/12 19:05:41;;;;;;;;;;;;;;;19.24;54.35;95381.38;10506263;28;2130;-73
2023/06/12 19:10:44;;;;;;;;;;;;;;;19.06;55.92;95380.75;10498968;28;1963;-73
2023/06/12 19:15:47;;;;;;;;;;;;;;;18.93;57.87;95386.53;10506927;28;1937;-73
2023/06/12 19:20:53;;;;;;;;;;;;;;;18.78;60.31;95388.75;10514998;28;2057;-73
2023/06/12 19:25:56;;;;;;;;;;;;;;;18.63;62.95;95400.22;10505622;28;2038;-73
2023/06/12 19:30:58;;;;;;;;;;;;;;;18.55;64.51;95393.72;10507192;28;1950;-72
2023/06/12 19:36:00;;;;;;;;;;;;;;;18.41;67.51;95395.94;10507326;28;1945;-72
2023/06/12 19:41:03;;;;;;;;;;;;;;;18.26;70.76;95401.97;10502964;28;4533;-75
2023/06/12 19:46:05;;;;;;;;;;;;;;;18.08;74.01;95404.00;10499157;28;2205;-72
2023/06/12 19:51:07;;;;;;;;;;;;;;;17.99;75.86;95417.66;10499209;28;2102;-69
2023/06/12 19:56:10;;;;;;;;;;;;;;;17.83;78.39;95413.91;10499475;28;2337;-70
2023/06/12 20:01:13;;;;;;;;;;;;;;;17.72;80.97;95415.41;10483500;28;2087;-71
2023/06/12 20:06:16;;;;;;;;;;;;;;;17.63;81.81;95417.34;10501976;28;1895;-68
2023/06/12 20:11:20;;;;;;;;;;;;;;;17.55;82.70;95425.19;10502840;28;2216;-72
2023/06/12 20:16:22;;;;;;;;;;;;;;;17.44;84.53;95423.19;10504764;28;2151;-71
2023/06/12 20:21:25;;;;;;;;;;;;;;;17.29;87.04;95414.41;10505712;28;1900;-72
2023/06/12 20:26:27;;;;;;;;;;;;;;;17.19;87.43;95422.16;10507412;28;2103;-72
2023/06/12 20:31:30;;;;;;;;;;;;;;;17.13;87.84;95413.38;10506564;28;1859;-72
2023/06/12 20:36:32;;;;;;;;;;;;;;;17.06;89.07;95409.56;10515399;28;1850;-71
2023/06/12 20:41:35;;;;;;;;;;;;;;;16.88;90.83;95409.59;10504861;28;2002;-72
2023/06/12 20:46:37;;;;;;;;;;;;;;;16.77;91.91;95405.59;10503801;28;2302;-72
2023/06/12 20:51:40;;;;;;;;;;;;;;;16.68;92.81;95405.59;10502245;28;2407;-73
2023/06/12 20:56:42;;;;;;;;;;;;;;;16.56;93.83;95402.72;10503217;28;2103;-72
2023/06/12 21:01:45;;;;;;;;;;;;;;;16.47;94.26;95402.72;10507112;28;2045;-73
2023/06/12 21:06:47;;;;;;;;;;;;;;;16.35;95.05;95405.31;10504928;28;1900;-73
2023/06/12 21:11:52;;;;;;;;;;;;;;;16.32;94.42;95400.50;10499723;28;1887;-74
2023/06/12 21:16:55;;;;;;;;;;;;;;;16.29;94.41;95401.16;10503137;28;1903;-72
2023/06/12 21:21:57;;;;;;;;;;;;;;;16.20;95.07;95401.13;10502342;28;1899;-72
2023/06/12 21:27:00;;;;;;;;;;;;;;;16.07;96.14;95412.13;10504668;28;1926;-72
2023/06/12 21:32:03;;;;;;;;;;;;;;;15.96;97.27;95408.91;10504996;28;1918;-73
2023/06/12 21:37:06;;;;;;;;;;;;;;;15.80;98.89;95415.91;10512146;28;1916;-73
2023/06/12 21:42:24;;;;;;;;;;;;;;;15.67;99.88;95412.19;10497797;28;4577;-72
2023/06/12 21:47:27;;;;;;;;;;;;;;;15.55;100.00;95412.78;10503449;28;2309;-71
2023/06/12 21:52:29;;;;;;;;;;;;;;;15.52;100.00;95418.78;10506272;28;1963;-71
2023/06/12 21:57:32;;;;;;;;;;;;;;;15.44;100.00;95416.88;10501510;28;1899;-71
2023/06/12 22:02:34;;;;;;;;;;;;;;;15.35;100.00;95406.00;10505919;28;1882;-71
2023/06/12 22:07:38;;;;;;;;;;;;;;;15.24;100.00;95401.16;10504878;28;1910;-71
2023/06/12 22:12:40;;;;;;;;;;;;;;;15.09;100.00;95403.19;10502898;28;1902;-71
2023/06/12 22:17:43;;;;;;;;;;;;;;;15.05;100.00;95413.03;10502812;28;1903;-72
2023/06/12 22:22:45;;;;;;;;;;;;;;;14.96;100.00;95400.56;10498774;28;2000;-71
2023/06/12 22:27:48;;;;;;;;;;;;;;;14.89;100.00;95406.41;10509808;28;1989;-72
2023/06/12 22:32:50;;;;;;;;;;;;;;;14.85;100.00;95402.72;10504323;28;1959;-72
2023/06/12 22:37:53;;;;;;;;;;;;;;;14.71;100.00;95402.00;10487634;28;1923;-71
2023/06/12 22:42:55;;;;;;;;;;;;;;;14.67;100.00;95401.00;10499233;28;4604;-73
2023/06/12 22:47:58;;;;;;;;;;;;;;;14.61;100.00;95400.34;10503522;28;1911;-71
2023/06/12 22:53:00;;;;;;;;;;;;;;;14.62;100.00;95393.03;10509959;28;2135;-73
2023/06/12 22:58:03;;;;;;;;;;;;;;;14.50;100.00;95398.97;10513043;28;1992;-73
2023/06/12 23:03:05;;;;;;;;;;;;;;;14.36;100.00;95390.91;10501645;28;1840;-71
2023/06/12 23:08:08;;;;;;;;;;;;;;;14.28;100.00;95395.13;10500830;28;1952;-71
2023/06/12 23:13:10;;;;;;;;;;;;;;;14.22;100.00;95396.34;10501438;28;2000;-72
2023/06/12 23:18:13;;;;;;;;;;;;;;;14.14;100.00;95393.59;10501808;28;1970;-72
2023/06/12 23:23:19;;;;;;;;;;;;;;;14.04;100.00;95394.59;10505109;28;2057;-72
2023/06/12 23:28:23;;;;;;;;;;;;;;;13.90;100.00;95386.53;10512962;28;1959;-71
2023/06/12 23:33:25;;;;;;;;;;;;;;;13.90;100.00;95383.84;10500677;28;1983;-72
2023/06/12 23:38:28;;;;;;;;;;;;;;;13.83;100.00;95380.75;10501372;28;1983;-73
2023/06/12 23:43:30;;;;;;;;;;;;;;;13.78;100.00;95380.84;10506518;28;4587;-72
2023/06/12 23:48:33;;;;;;;;;;;;;;;13.63;100.00;95383.88;10497572;28;1934;-71
2023/06/12 23:53:36;;;;;;;;;;;;;;;13.59;100.00;95382.88;10501158;28;2171;-71
2023/06/12 23:58:38;;;;;;;;;;;;;;;13.51;100.00;95379.00;10496925;28;1903;-71
